sensor_id;sensor_type;location;lat;lon;timestamp;temperature;humidity
64620;DHT22;51029;51.058;13.826;2023-07-09T00:00:52;18.60;99.90
64620;DHT22;51029;51.058;13.826;2023-07-09T00:03:18;18.60;99.90
64620;DHT22;51029;51.058;13.826;2023-07-09T00:05:47;18.50;99.90
64620;DHT22;51029;51.058;13.826;2023-07-09T00:08:31;18.40;99.90
64620;DHT22;51029;51.058;13.826;2023-07-09T00:10:58;18.40;99.90
64620;DHT22;51029;51.058;13.826;2023-07-09T00:13:26;18.30;99.90
64620;DHT22;51029;51.058;13.826;2023-07-09T00:15:53;18.20;99.90
64620;DHT22;51029;51.058;13.826;2023-07-09T00:18:20;18.20;99.90
64620;DHT22;51029;51.058;13.826;2023-07-09T00:20:45;18.20;99.90
64620;DHT22;51029;51.058;13.826;2023-07-09T00:23:13;18.10;99.90
64620;DHT22;51029;51.058;13.826;2023-07-09T00:25:40;18.10;99.90
64620;DHT22;51029;51.058;13.826;2023-07-09T00:28:16;18.10;99.90
64620;DHT22;51029;51.058;13.826;2023-07-09T00:30:43;18.00;99.90
64620;DHT22;51029;51.058;13.826;2023-07-09T00:33:13;18.00;99.90
64620;DHT22;51029;51.058;13.826;2023-07-09T00:35:45;18.00;99.90
64620;DHT22;51029;51.058;13.826;2023-07-09T00:38:19;18.00;99.90
64620;DHT22;51029;51.058;13.826;2023-07-09T00:41:05;17.90;99.90
64620;DHT22;51029;51.058;13.826;2023-07-09T00:43:34;17.90;99.90
64620;DHT22;51029;51.058;13.826;2023-07-09T00:48:53;17.80;99.90
64620;DHT22;51029;51.058;13.826;2023-07-09T00:51:20;17.80;99.90
64620;DHT22;51029;51.058;13.826;2023-07-09T00:53:49;17.70;99.90
64620;DHT22;51029;51.058;13.826;2023-07-09T00:56:26;17.70;99.90
64620;DHT22;51029;51.058;13.826;2023-07-09T00:58:54;17.70;99.90
64620;DHT22;51029;51.058;13.826;2023-07-09T01:01:20;17.60;99.90
64620;DHT22;51029;51.058;13.826;2023-07-09T01:03:54;17.60;99.90
64620;DHT22;51029;51.058;13.826;2023-07-09T01:06:30;17.50;99.90
64620;DHT22;51029;51.058;13.826;2023-07-09T01:08:58;17.50;99.90
64620;DHT22;51029;51.058;13.826;2023-07-09T01:11:24;17.50;99.90
64620;DHT22;51029;51.058;13.826;2023-07-09T01:13:51;17.40;99.90
64620;DHT22;51029;51.058;13.826;2023-07-09T01:16:18;17.40;99.90
64620;DHT22;51029;51.058;13.826;2023-07-09T01:18:44;17.40;99.90
64620;DHT22;51029;51.058;13.826;2023-07-09T01:21:10;17.40;99.90
64620;DHT22;51029;51.058;13.826;2023-07-09T01:23:43;17.40;99.90
64620;DHT22;51029;51.058;13.826;2023-07-09T01:26:15;17.30;99.90
64620;DHT22;51029;51.058;13.826;2023-07-09T01:28:42;17.20;99.90
64620;DHT22;51029;51.058;13.826;2023-07-09T01:31:09;17.20;99.90
64620;DHT22;51029;51.058;13.826;2023-07-09T01:33:35;17.20;99.90
64620;DHT22;51029;51.058;13.826;2023-07-09T01:36:01;17.10;99.90
64620;DHT22;51029;51.058;13.826;2023-07-09T01:38:27;17.10;99.90
64620;DHT22;51029;51.058;13.826;2023-07-09T01:40:57;17.10;99.90
64620;DHT22;51029;51.058;13.826;2023-07-09T01:43:23;17.10;99.90
64620;DHT22;51029;51.058;13.826;2023-07-09T01:45:50;17.10;99.90
64620;DHT22;51029;51.058;13.826;2023-07-09T01:48:17;17.00;99.90
64620;DHT22;51029;51.058;13.826;2023-07-09T01:50:46;17.00;99.90
64620;DHT22;51029;51.058;13.826;2023-07-09T01:53:16;17.00;99.90
64620;DHT22;51029;51.058;13.826;2023-07-09T01:55:43;17.00;99.90
64620;DHT22;51029;51.058;13.826;2023-07-09T01:58:10;16.90;99.90
64620;DHT22;51029;51.058;13.826;2023-07-09T02:00:37;16.90;99.90
64620;DHT22;51029;51.058;13.826;2023-07-09T02:03:03;16.90;99.90
64620;DHT22;51029;51.058;13.826;2023-07-09T02:05:31;16.90;99.90
64620;DHT22;51029;51.058;13.826;2023-07-09T02:07:57;16.80;99.90
64620;DHT22;51029;51.058;13.826;2023-07-09T02:10:23;16.80;99.90
64620;DHT22;51029;51.058;13.826;2023-07-09T02:12:48;16.80;99.90
64620;DHT22;51029;51.058;13.826;2023-07-09T02:15:15;16.70;99.90
64620;DHT22;51029;51.058;13.826;2023-07-09T02:17:41;16.70;99.90
64620;DHT22;51029;51.058;13.826;2023-07-09T02:20:07;16.70;99.90
64620;DHT22;51029;51.058;13.826;2023-07-09T02:22:35;16.60;99.90
64620;DHT22;51029;51.058;13.826;2023-07-09T02:25:01;16.60;99.90
64620;DHT22;51029;51.058;13.826;2023-07-09T02:27:26;16.60;99.90
64620;DHT22;51029;51.058;13.826;2023-07-09T02:29:53;16.60;99.90
64620;DHT22;51029;51.058;13.826;2023-07-09T02:32:22;16.60;99.90
64620;DHT22;51029;51.058;13.826;2023-07-09T02:34:48;16.50;99.90
64620;DHT22;51029;51.058;13.826;2023-07-09T02:37:15;16.50;99.90
64620;DHT22;51029;51.058;13.826;2023-07-09T02:39:43;16.50;99.90
64620;DHT22;51029;51.058;13.826;2023-07-09T02:42:10;16.50;99.90
64620;DHT22;51029;51.058;13.826;2023-07-09T02:44:36;16.40;99.90
64620;DHT22;51029;51.058;13.826;2023-07-09T02:47:02;16.40;99.90
64620;DHT22;51029;51.058;13.826;2023-07-09T02:49:28;16.40;99.90
64620;DHT22;51029;51.058;13.826;2023-07-09T02:51:53;16.40;99.90
64620;DHT22;51029;51.058;13.826;2023-07-09T02:54:19;16.40;99.90
64620;DHT22;51029;51.058;13.826;2023-07-09T02:56:44;16.40;99.90
64620;DHT22;51029;51.058;13.826;2023-07-09T02:59:10;16.40;99.90
64620;DHT22;51029;51.058;13.826;2023-07-09T03:01:37;16.40;99.90
64620;DHT22;51029;51.058;13.826;2023-07-09T03:04:02;16.40;99.90
64620;DHT22;51029;51.058;13.826;2023-07-09T03:06:29;16.30;99.90
64620;DHT22;51029;51.058;13.826;2023-07-09T03:08:58;16.30;99.90
64620;DHT22;51029;51.058;13.826;2023-07-09T03:11:24;16.30;99.90
64620;DHT22;51029;51.058;13.826;2023-07-09T03:13:50;16.30;99.90
64620;DHT22;51029;51.058;13.826;2023-07-09T03:16:16;16.30;99.90
64620;DHT22;51029;51.058;13.826;2023-07-09T03:18:41;16.30;99.90
64620;DHT22;51029;51.058;13.826;2023-07-09T03:21:07;16.20;99.90
64620;DHT22;51029;51.058;13.826;2023-07-09T03:23:33;16.30;99.90
64620;DHT22;51029;51.058;13.826;2023-07-09T03:25:58;16.30;99.90
64620;DHT22;51029;51.058;13.826;2023-07-09T03:28:25;16.30;99.90
64620;DHT22;51029;51.058;13.826;2023-07-09T03:30:53;16.30;99.90
64620;DHT22;51029;51.058;13.826;2023-07-09T03:33:20;16.30;99.90
64620;DHT22;51029;51.058;13.826;2023-07-09T03:35:45;16.30;99.90
64620;DHT22;51029;51.058;13.826;2023-07-09T03:38:12;16.30;99.90
64620;DHT22;51029;51.058;13.826;2023-07-09T03:40:38;16.30;99.90
64620;DHT22;51029;51.058;13.826;2023-07-09T03:43:05;16.40;99.90
64620;DHT22;51029;51.058;13.826;2023-07-09T03:45:31;16.40;99.90
64620;DHT22;51029;51.058;13.826;2023-07-09T03:47:57;16.40;99.90
64620;DHT22;51029;51.058;13.826;2023-07-09T03:50:22;16.50;99.90
64620;DHT22;51029;51.058;13.826;2023-07-09T03:52:48;16.50;99.90
64620;DHT22;51029;51.058;13.826;2023-07-09T03:55:13;16.50;99.90
64620;DHT22;51029;51.058;13.826;2023-07-09T03:57:40;16.50;99.90
64620;DHT22;51029;51.058;13.826;2023-07-09T04:00:06;16.50;99.90
64620;DHT22;51029;51.058;13.826;2023-07-09T04:02:36;16.60;99.90
64620;DHT22;51029;51.058;13.826;2023-07-09T04:05:02;16.60;99.90
64620;DHT22;51029;51.058;13.826;2023-07-09T04:07:28;16.70;99.90
64620;DHT22;51029;51.058;13.826;2023-07-09T04:09:53;16.70;99.90
64620;DHT22;51029;51.058;13.826;2023-07-09T04:12:19;16.70;99.90
64620;DHT22;51029;51.058;13.826;2023-07-09T04:14:44;16.80;99.90
64620;DHT22;51029;51.058;13.826;2023-07-09T04:17:10;16.90;99.90
64620;DHT22;51029;51.058;13.826;2023-07-09T04:19:36;16.90;99.90
64620;DHT22;51029;51.058;13.826;2023-07-09T04:22:01;17.00;99.90
64620;DHT22;51029;51.058;13.826;2023-07-09T04:24:27;17.00;99.90
64620;DHT22;51029;51.058;13.826;2023-07-09T04:26:53;17.00;99.90
64620;DHT22;51029;51.058;13.826;2023-07-09T04:29:25;17.10;99.90
64620;DHT22;51029;51.058;13.826;2023-07-09T04:31:50;17.10;99.90
64620;DHT22;51029;51.058;13.826;2023-07-09T04:34:16;17.10;99.90
64620;DHT22;51029;51.058;13.826;2023-07-09T04:36:41;17.10;99.90
64620;DHT22;51029;51.058;13.826;2023-07-09T04:39:07;17.10;99.90
64620;DHT22;51029;51.058;13.826;2023-07-09T04:41:33;17.20;99.90
64620;DHT22;51029;51.058;13.826;2023-07-09T04:43:58;17.20;99.90
64620;DHT22;51029;51.058;13.826;2023-07-09T04:46:24;17.20;99.90
64620;DHT22;51029;51.058;13.826;2023-07-09T04:48:49;17.30;99.90
64620;DHT22;51029;51.058;13.826;2023-07-09T04:51:15;17.40;99.90
64620;DHT22;51029;51.058;13.826;2023-07-09T04:53:41;17.50;99.90
64620;DHT22;51029;51.058;13.826;2023-07-09T04:56:07;17.60;99.90
64620;DHT22;51029;51.058;13.826;2023-07-09T04:58:34;17.70;99.90
64620;DHT22;51029;51.058;13.826;2023-07-09T05:01:00;17.80;99.90
64620;DHT22;51029;51.058;13.826;2023-07-09T05:03:26;17.80;99.90
64620;DHT22;51029;51.058;13.826;2023-07-09T05:05:52;17.90;99.90
64620;DHT22;51029;51.058;13.826;2023-07-09T05:08:17;18.00;99.90
64620;DHT22;51029;51.058;13.826;2023-07-09T05:10:45;18.10;99.90
64620;DHT22;51029;51.058;13.826;2023-07-09T05:13:11;18.10;99.90
64620;DHT22;51029;51.058;13.826;2023-07-09T05:15:41;18.10;99.90
64620;DHT22;51029;51.058;13.826;2023-07-09T05:18:07;18.10;99.90
64620;DHT22;51029;51.058;13.826;2023-07-09T05:20:33;18.20;99.90
64620;DHT22;51029;51.058;13.826;2023-07-09T05:22:59;18.30;99.90
64620;DHT22;51029;51.058;13.826;2023-07-09T05:25:24;18.40;99.90
64620;DHT22;51029;51.058;13.826;2023-07-09T05:27:50;18.50;99.90
64620;DHT22;51029;51.058;13.826;2023-07-09T05:30:17;18.50;99.90
64620;DHT22;51029;51.058;13.826;2023-07-09T05:32:43;18.60;99.90
64620;DHT22;51029;51.058;13.826;2023-07-09T05:35:08;18.70;99.90
64620;DHT22;51029;51.058;13.826;2023-07-09T05:37:35;18.70;99.90
64620;DHT22;51029;51.058;13.826;2023-07-09T05:40:01;18.80;99.90
64620;DHT22;51029;51.058;13.826;2023-07-09T05:42:26;18.80;99.90
64620;DHT22;51029;51.058;13.826;2023-07-09T05:44:52;18.80;99.90
64620;DHT22;51029;51.058;13.826;2023-07-09T05:47:18;18.80;99.90
64620;DHT22;51029;51.058;13.826;2023-07-09T05:49:43;18.80;99.90
64620;DHT22;51029;51.058;13.826;2023-07-09T05:52:09;19.00;99.90
64620;DHT22;51029;51.058;13.826;2023-07-09T05:54:34;19.00;99.90
64620;DHT22;51029;51.058;13.826;2023-07-09T05:57:00;19.10;99.90
64620;DHT22;51029;51.058;13.826;2023-07-09T05:59:25;19.20;99.90
64620;DHT22;51029;51.058;13.826;2023-07-09T06:01:51;19.30;99.90
64620;DHT22;51029;51.058;13.826;2023-07-09T06:04:16;19.50;99.90
64620;DHT22;51029;51.058;13.826;2023-07-09T06:06:42;19.60;99.90
64620;DHT22;51029;51.058;13.826;2023-07-09T06:09:10;19.70;99.90
64620;DHT22;51029;51.058;13.826;2023-07-09T06:11:36;19.80;99.90
64620;DHT22;51029;51.058;13.826;2023-07-09T06:14:01;19.90;99.90
64620;DHT22;51029;51.058;13.826;2023-07-09T06:16:27;20.00;99.90
64620;DHT22;51029;51.058;13.826;2023-07-09T06:18:53;20.20;99.90
64620;DHT22;51029;51.058;13.826;2023-07-09T06:21:18;20.30;99.90
64620;DHT22;51029;51.058;13.826;2023-07-09T06:23:46;20.40;99.90
64620;DHT22;51029;51.058;13.826;2023-07-09T06:26:12;20.50;99.90
64620;DHT22;51029;51.058;13.826;2023-07-09T06:28:37;20.60;99.90
64620;DHT22;51029;51.058;13.826;2023-07-09T06:31:03;20.80;99.90
64620;DHT22;51029;51.058;13.826;2023-07-09T06:33:28;20.80;99.90
64620;DHT22;51029;51.058;13.826;2023-07-09T06:35:56;20.90;99.90
64620;DHT22;51029;51.058;13.826;2023-07-09T06:38:22;21.10;99.90
64620;DHT22;51029;51.058;13.826;2023-07-09T06:40:48;21.20;99.90
64620;DHT22;51029;51.058;13.826;2023-07-09T06:43:14;21.30;99.90
64620;DHT22;51029;51.058;13.826;2023-07-09T06:45:51;21.50;99.90
64620;DHT22;51029;51.058;13.826;2023-07-09T06:48:17;21.60;99.90
64620;DHT22;51029;51.058;13.826;2023-07-09T06:50:43;21.70;99.90
64620;DHT22;51029;51.058;13.826;2023-07-09T06:53:08;21.90;99.90
64620;DHT22;51029;51.058;13.826;2023-07-09T06:55:35;22.00;99.90
64620;DHT22;51029;51.058;13.826;2023-07-09T06:58:01;22.10;99.90
64620;DHT22;51029;51.058;13.826;2023-07-09T07:00:26;22.20;99.90
64620;DHT22;51029;51.058;13.826;2023-07-09T07:02:52;22.20;99.90
64620;DHT22;51029;51.058;13.826;2023-07-09T07:05:18;22.20;99.90
64620;DHT22;51029;51.058;13.826;2023-07-09T07:07:44;22.30;99.90
64620;DHT22;51029;51.058;13.826;2023-07-09T07:10:10;22.50;99.90
64620;DHT22;51029;51.058;13.826;2023-07-09T07:12:44;22.60;99.90
64620;DHT22;51029;51.058;13.826;2023-07-09T07:15:12;22.80;99.90
64620;DHT22;51029;51.058;13.826;2023-07-09T07:17:38;22.90;99.90
64620;DHT22;51029;51.058;13.826;2023-07-09T07:20:05;23.10;99.90
64620;DHT22;51029;51.058;13.826;2023-07-09T07:22:31;23.30;99.90
64620;DHT22;51029;51.058;13.826;2023-07-09T07:24:56;23.40;99.90
64620;DHT22;51029;51.058;13.826;2023-07-09T07:27:22;23.50;99.90
64620;DHT22;51029;51.058;13.826;2023-07-09T07:29:47;23.70;99.90
64620;DHT22;51029;51.058;13.826;2023-07-09T07:32:13;23.80;99.90
64620;DHT22;51029;51.058;13.826;2023-07-09T07:34:38;24.00;99.90
64620;DHT22;51029;51.058;13.826;2023-07-09T07:37:04;24.00;99.90
64620;DHT22;51029;51.058;13.826;2023-07-09T07:39:29;24.20;99.90
64620;DHT22;51029;51.058;13.826;2023-07-09T07:41:55;24.40;99.90
64620;DHT22;51029;51.058;13.826;2023-07-09T07:44:21;24.60;99.90
64620;DHT22;51029;51.058;13.826;2023-07-09T07:46:47;24.80;99.90
64620;DHT22;51029;51.058;13.826;2023-07-09T07:49:12;25.00;99.90
64620;DHT22;51029;51.058;13.826;2023-07-09T07:51:38;25.10;99.90
64620;DHT22;51029;51.058;13.826;2023-07-09T07:54:04;25.30;99.90
64620;DHT22;51029;51.058;13.826;2023-07-09T07:56:30;25.50;99.90
64620;DHT22;51029;51.058;13.826;2023-07-09T07:58:55;25.70;99.90
64620;DHT22;51029;51.058;13.826;2023-07-09T08:01:21;25.80;99.90
64620;DHT22;51029;51.058;13.826;2023-07-09T08:03:47;25.90;99.90
64620;DHT22;51029;51.058;13.826;2023-07-09T08:06:12;26.00;99.90
64620;DHT22;51029;51.058;13.826;2023-07-09T08:08:38;26.10;99.90
64620;DHT22;51029;51.058;13.826;2023-07-09T08:11:06;26.30;99.90
64620;DHT22;51029;51.058;13.826;2023-07-09T08:13:37;26.50;99.90
64620;DHT22;51029;51.058;13.826;2023-07-09T08:16:04;26.70;99.90
64620;DHT22;51029;51.058;13.826;2023-07-09T08:18:30;26.80;99.90
64620;DHT22;51029;51.058;13.826;2023-07-09T08:20:56;27.00;99.90
64620;DHT22;51029;51.058;13.826;2023-07-09T08:23:21;27.10;99.90
64620;DHT22;51029;51.058;13.826;2023-07-09T08:25:58;27.30;99.90
64620;DHT22;51029;51.058;13.826;2023-07-09T08:28:24;27.50;99.90
64620;DHT22;51029;51.058;13.826;2023-07-09T08:30:53;27.60;99.90
64620;DHT22;51029;51.058;13.826;2023-07-09T08:33:20;27.80;99.90
64620;DHT22;51029;51.058;13.826;2023-07-09T08:35:48;27.90;99.90
64620;DHT22;51029;51.058;13.826;2023-07-09T08:38:14;28.10;99.90
64620;DHT22;51029;51.058;13.826;2023-07-09T08:40:40;28.20;99.90
64620;DHT22;51029;51.058;13.826;2023-07-09T08:43:42;28.40;99.90
64620;DHT22;51029;51.058;13.826;2023-07-09T08:46:26;28.70;99.90
64620;DHT22;51029;51.058;13.826;2023-07-09T08:48:56;28.80;99.90
64620;DHT22;51029;51.058;13.826;2023-07-09T08:51:38;29.00;99.90
64620;DHT22;51029;51.058;13.826;2023-07-09T08:54:09;29.20;99.90
64620;DHT22;51029;51.058;13.826;2023-07-09T08:56:37;29.20;99.90
64620;DHT22;51029;51.058;13.826;2023-07-09T08:59:03;29.40;89.60
64620;DHT22;51029;51.058;13.826;2023-07-09T09:01:34;29.60;81.10
64620;DHT22;51029;51.058;13.826;2023-07-09T09:04:17;29.90;90.00
64620;DHT22;51029;51.058;13.826;2023-07-09T09:06:50;30.30;85.70
64620;DHT22;51029;51.058;13.826;2023-07-09T09:09:38;30.80;69.80
64620;DHT22;51029;51.058;13.826;2023-07-09T09:12:14;31.10;65.60
64620;DHT22;51029;51.058;13.826;2023-07-09T09:14:43;31.20;62.10
64620;DHT22;51029;51.058;13.826;2023-07-09T09:17:19;31.40;58.90
64620;DHT22;51029;51.058;13.826;2023-07-09T09:19:51;31.60;58.90
64620;DHT22;51029;51.058;13.826;2023-07-09T09:22:21;31.80;58.20
64620;DHT22;51029;51.058;13.826;2023-07-09T09:25:16;31.70;59.60
64620;DHT22;51029;51.058;13.826;2023-07-09T09:27:44;31.70;58.80
64620;DHT22;51029;51.058;13.826;2023-07-09T09:30:15;32.20;59.00
64620;DHT22;51029;51.058;13.826;2023-07-09T09:32:44;32.80;56.70
64620;DHT22;51029;51.058;13.826;2023-07-09T09:35:17;33.00;53.00
64620;DHT22;51029;51.058;13.826;2023-07-09T09:37:51;32.60;51.40
64620;DHT22;51029;51.058;13.826;2023-07-09T09:40:18;32.60;49.30
64620;DHT22;51029;51.058;13.826;2023-07-09T09:42:47;32.70;48.80
64620;DHT22;51029;51.058;13.826;2023-07-09T09:45:19;32.80;48.20
64620;DHT22;51029;51.058;13.826;2023-07-09T09:47:46;33.00;44.40
64620;DHT22;51029;51.058;13.826;2023-07-09T09:50:16;33.30;43.90
64620;DHT22;51029;51.058;13.826;2023-07-09T09:52:43;33.60;43.30
64620;DHT22;51029;51.058;13.826;2023-07-09T09:55:23;33.70;43.20
64620;DHT22;51029;51.058;13.826;2023-07-09T09:57:50;34.10;43.10
64620;DHT22;51029;51.058;13.826;2023-07-09T10:00:17;34.50;41.90
64620;DHT22;51029;51.058;13.826;2023-07-09T10:02:43;35.00;40.40
64620;DHT22;51029;51.058;13.826;2023-07-09T10:05:31;35.80;39.30
64620;DHT22;51029;51.058;13.826;2023-07-09T10:10:24;37.20;36.30
64620;DHT22;51029;51.058;13.826;2023-07-09T10:13:07;36.80;33.40
64620;DHT22;51029;51.058;13.826;2023-07-09T10:16:17;37.00;33.20
64620;DHT22;51029;51.058;13.826;2023-07-09T10:21:34;37.30;32.50
64620;DHT22;51029;51.058;13.826;2023-07-09T10:24:47;37.80;30.90
64620;DHT22;51029;51.058;13.826;2023-07-09T10:27:16;38.00;30.00
64620;DHT22;51029;51.058;13.826;2023-07-09T10:29:58;39.50;29.70
64620;DHT22;51029;51.058;13.826;2023-07-09T10:38:04;42.10;25.80
64620;DHT22;51029;51.058;13.826;2023-07-09T10:40:41;42.80;24.50
64620;DHT22;51029;51.058;13.826;2023-07-09T10:43:13;44.30;24.00
64620;DHT22;51029;51.058;13.826;2023-07-09T10:45:44;44.50;23.20
64620;DHT22;51029;51.058;13.826;2023-07-09T10:48:16;44.30;22.30
64620;DHT22;51029;51.058;13.826;2023-07-09T10:50:48;44.60;22.00
64620;DHT22;51029;51.058;13.826;2023-07-09T10:53:29;45.60;21.20
64620;DHT22;51029;51.058;13.826;2023-07-09T10:56:21;45.10;20.60
64620;DHT22;51029;51.058;13.826;2023-07-09T10:59:03;45.70;20.90
64620;DHT22;51029;51.058;13.826;2023-07-09T11:01:42;46.70;20.50
64620;DHT22;51029;51.058;13.826;2023-07-09T11:04:25;46.90;20.20
64620;DHT22;51029;51.058;13.826;2023-07-09T11:06:54;46.30;20.00
64620;DHT22;51029;51.058;13.826;2023-07-09T11:11:50;46.90;20.30
64620;DHT22;51029;51.058;13.826;2023-07-09T11:14:35;47.70;20.20
64620;DHT22;51029;51.058;13.826;2023-07-09T11:17:04;47.60;20.20
64620;DHT22;51029;51.058;13.826;2023-07-09T11:19:31;46.60;19.60
64620;DHT22;51029;51.058;13.826;2023-07-09T11:24:35;49.20;18.50
64620;DHT22;51029;51.058;13.826;2023-07-09T11:27:01;49.70;18.20
64620;DHT22;51029;51.058;13.826;2023-07-09T11:29:27;50.20;17.70
64620;DHT22;51029;51.058;13.826;2023-07-09T11:31:54;51.30;17.00
64620;DHT22;51029;51.058;13.826;2023-07-09T11:34:27;51.80;16.70
64620;DHT22;51029;51.058;13.826;2023-07-09T11:41:56;52.50;16.50
64620;DHT22;51029;51.058;13.826;2023-07-09T11:44:25;51.90;16.40
64620;DHT22;51029;51.058;13.826;2023-07-09T11:47:27;52.10;16.30
64620;DHT22;51029;51.058;13.826;2023-07-09T11:50:03;52.50;16.10
64620;DHT22;51029;51.058;13.826;2023-07-09T11:52:50;54.10;15.70
64620;DHT22;51029;51.058;13.826;2023-07-09T11:55:26;54.80;15.90
64620;DHT22;51029;51.058;13.826;2023-07-09T11:57:54;53.40;15.20
64620;DHT22;51029;51.058;13.826;2023-07-09T12:00:20;54.30;14.80
64620;DHT22;51029;51.058;13.826;2023-07-09T12:02:46;54.90;14.30
64620;DHT22;51029;51.058;13.826;2023-07-09T12:05:13;55.90;14.20
64620;DHT22;51029;51.058;13.826;2023-07-09T12:07:43;55.90;13.80
64620;DHT22;51029;51.058;13.826;2023-07-09T12:10:24;56.90;13.90
64620;DHT22;51029;51.058;13.826;2023-07-09T12:12:55;58.60;13.40
64620;DHT22;51029;51.058;13.826;2023-07-09T12:15:27;57.10;13.40
64620;DHT22;51029;51.058;13.826;2023-07-09T12:17:59;57.00;13.30
64620;DHT22;51029;51.058;13.826;2023-07-09T12:20:27;55.50;13.60
64620;DHT22;51029;51.058;13.826;2023-07-09T12:22:54;55.40;13.80
64620;DHT22;51029;51.058;13.826;2023-07-09T12:25:23;57.20;13.20
64620;DHT22;51029;51.058;13.826;2023-07-09T12:27:50;58.10;12.70
64620;DHT22;51029;51.058;13.826;2023-07-09T12:30:15;59.20;12.40
64620;DHT22;51029;51.058;13.826;2023-07-09T12:32:49;58.50;12.50
64620;DHT22;51029;51.058;13.826;2023-07-09T12:35:20;57.30;12.50
64620;DHT22;51029;51.058;13.826;2023-07-09T12:37:47;57.10;12.60
64620;DHT22;51029;51.058;13.826;2023-07-09T12:40:27;57.80;12.50
64620;DHT22;51029;51.058;13.826;2023-07-09T12:42:54;59.10;12.50
64620;DHT22;51029;51.058;13.826;2023-07-09T12:45:23;59.20;11.90
64620;DHT22;51029;51.058;13.826;2023-07-09T12:47:49;58.70;12.10
64620;DHT22;51029;51.058;13.826;2023-07-09T12:50:22;57.50;11.90
64620;DHT22;51029;51.058;13.826;2023-07-09T12:52:51;58.20;12.50
64620;DHT22;51029;51.058;13.826;2023-07-09T12:55:23;60.30;11.70
64620;DHT22;51029;51.058;13.826;2023-07-09T12:57:48;61.00;11.40
64620;DHT22;51029;51.058;13.826;2023-07-09T13:00:16;60.10;11.20
64620;DHT22;51029;51.058;13.826;2023-07-09T13:02:42;59.80;11.50
64620;DHT22;51029;51.058;13.826;2023-07-09T13:05:20;59.70;11.60
64620;DHT22;51029;51.058;13.826;2023-07-09T13:07:50;58.50;11.80
64620;DHT22;51029;51.058;13.826;2023-07-09T13:10:25;59.20;11.30
64620;DHT22;51029;51.058;13.826;2023-07-09T13:12:54;58.70;11.30
64620;DHT22;51029;51.058;13.826;2023-07-09T13:15:30;58.60;11.60
64620;DHT22;51029;51.058;13.826;2023-07-09T13:18:01;60.00;11.50
64620;DHT22;51029;51.058;13.826;2023-07-09T13:20:28;60.40;11.00
64620;DHT22;51029;51.058;13.826;2023-07-09T13:22:54;59.30;11.10
64620;DHT22;51029;51.058;13.826;2023-07-09T13:25:20;58.40;11.20
64620;DHT22;51029;51.058;13.826;2023-07-09T13:27:45;57.80;11.50
64620;DHT22;51029;51.058;13.826;2023-07-09T13:30:11;58.50;11.50
64620;DHT22;51029;51.058;13.826;2023-07-09T13:32:38;58.30;11.40
64620;DHT22;51029;51.058;13.826;2023-07-09T13:35:08;57.90;11.30
64620;DHT22;51029;51.058;13.826;2023-07-09T13:37:37;59.00;11.20
64620;DHT22;51029;51.058;13.826;2023-07-09T13:40:03;58.90;11.10
64620;DHT22;51029;51.058;13.826;2023-07-09T13:42:29;56.80;11.20
64620;DHT22;51029;51.058;13.826;2023-07-09T13:44:55;57.30;11.80
64620;DHT22;51029;51.058;13.826;2023-07-09T13:47:21;57.70;11.60
64620;DHT22;51029;51.058;13.826;2023-07-09T13:49:47;58.30;11.70
64620;DHT22;51029;51.058;13.826;2023-07-09T13:52:17;57.60;11.50
64620;DHT22;51029;51.058;13.826;2023-07-09T13:54:43;57.30;11.60
64620;DHT22;51029;51.058;13.826;2023-07-09T13:57:14;55.80;11.50
64620;DHT22;51029;51.058;13.826;2023-07-09T13:59:41;54.90;12.30
64620;DHT22;51029;51.058;13.826;2023-07-09T14:02:26;54.40;12.20
64620;DHT22;51029;51.058;13.826;2023-07-09T14:04:57;54.90;12.40
64620;DHT22;51029;51.058;13.826;2023-07-09T14:07:37;55.20;12.00
64620;DHT22;51029;51.058;13.826;2023-07-09T14:10:05;54.50;12.10
64620;DHT22;51029;51.058;13.826;2023-07-09T14:12:32;53.80;12.30
64620;DHT22;51029;51.058;13.826;2023-07-09T14:14:59;53.40;12.20
64620;DHT22;51029;51.058;13.826;2023-07-09T14:17:26;53.70;12.20
64620;DHT22;51029;51.058;13.826;2023-07-09T14:19:52;52.30;12.30
64620;DHT22;51029;51.058;13.826;2023-07-09T14:22:31;48.90;13.10
64620;DHT22;51029;51.058;13.826;2023-07-09T14:24:58;46.50;14.20
64620;DHT22;51029;51.058;13.826;2023-07-09T14:27:24;44.60;15.00
64620;DHT22;51029;51.058;13.826;2023-07-09T14:29:49;43.10;15.80
64620;DHT22;51029;51.058;13.826;2023-07-09T14:32:37;42.10;16.20
64620;DHT22;51029;51.058;13.826;2023-07-09T14:35:14;41.00;17.20
64620;DHT22;51029;51.058;13.826;2023-07-09T14:37:40;41.00;17.60
64620;DHT22;51029;51.058;13.826;2023-07-09T14:40:06;42.10;17.40
64620;DHT22;51029;51.058;13.826;2023-07-09T14:42:32;44.90;17.00
64620;DHT22;51029;51.058;13.826;2023-07-09T14:44:57;46.80;15.60
64620;DHT22;51029;51.058;13.826;2023-07-09T14:47:23;48.20;14.90
64620;DHT22;51029;51.058;13.826;2023-07-09T14:49:50;49.60;14.60
64620;DHT22;51029;51.058;13.826;2023-07-09T14:52:20;51.00;14.20
64620;DHT22;51029;51.058;13.826;2023-07-09T14:54:49;51.80;13.80
64620;DHT22;51029;51.058;13.826;2023-07-09T14:57:19;52.30;13.50
64620;DHT22;51029;51.058;13.826;2023-07-09T14:59:46;51.10;12.90
64620;DHT22;51029;51.058;13.826;2023-07-09T15:02:34;48.10;13.80
64620;DHT22;51029;51.058;13.826;2023-07-09T15:05:02;46.00;14.20
64620;DHT22;51029;51.058;13.826;2023-07-09T15:07:28;44.10;15.60
64620;DHT22;51029;51.058;13.826;2023-07-09T15:09:56;43.20;16.40
64620;DHT22;51029;51.058;13.826;2023-07-09T15:12:30;42.40;16.90
64620;DHT22;51029;51.058;13.826;2023-07-09T15:17:45;41.10;17.80
64620;DHT22;51029;51.058;13.826;2023-07-09T15:20:21;40.50;17.90
64620;DHT22;51029;51.058;13.826;2023-07-09T15:22:48;39.80;18.50
64620;DHT22;51029;51.058;13.826;2023-07-09T15:25:20;39.20;19.40
64620;DHT22;51029;51.058;13.826;2023-07-09T15:27:46;38.10;19.60
64620;DHT22;51029;51.058;13.826;2023-07-09T15:30:14;37.90;20.80
64620;DHT22;51029;51.058;13.826;2023-07-09T15:32:40;38.10;21.10
64620;DHT22;51029;51.058;13.826;2023-07-09T15:35:05;37.90;20.40
64620;DHT22;51029;51.058;13.826;2023-07-09T15:37:31;37.90;20.30
64620;DHT22;51029;51.058;13.826;2023-07-09T15:39:56;37.60;21.30
64620;DHT22;51029;51.058;13.826;2023-07-09T15:42:22;37.60;21.40
64620;DHT22;51029;51.058;13.826;2023-07-09T15:44:47;37.30;21.10
64620;DHT22;51029;51.058;13.826;2023-07-09T15:47:17;37.20;21.70
64620;DHT22;51029;51.058;13.826;2023-07-09T15:49:44;37.30;22.60
64620;DHT22;51029;51.058;13.826;2023-07-09T15:52:10;37.30;21.70